Manhattan Beach, California
Current Conditions -  °F | °C
As of 11:53 AM on Sunday 23 Nov 2014 (Local Time) from KLAX Reporting Station
Scattered Clouds Scattered Clouds  
Wind Chill: 78°   Ceiling: Unl
Heat Index: 78°   Visibility: 10mi
Dew Point: 24°   Wind: 0mph
Humidity: 14%   Direction: NA
Pressure: 30.09"   Gusts: NA
Location:  33.89°N, 118.41°W
Report Text: KLAX 231953Z 00000KT 10SM SCT200 26/M04 A3009 RMK AO2 SLP188 T02561044
Loading
Personal Weather Stations






























Interactive Weather Map New forecast layout! Learn more

10-Day Weather Forecast

Advertisements
Track Severe Weather on mobile